sensor_id;sensor_type;location;lat;lon;timestamp;P1;durP1;ratioP1;P2;durP2;ratioP2
64457;SDS011;58438;51.200;7.252;2023-02-08T00:01:45;10.57;;;5.68;;
64457;SDS011;58438;51.200;7.252;2023-02-08T00:04:33;10.85;;;5.53;;
64457;SDS011;58438;51.200;7.252;2023-02-08T00:07:21;11.13;;;5.60;;
64457;SDS011;58438;51.200;7.252;2023-02-08T00:10:08;7.40;;;5.53;;
64457;SDS011;58438;51.200;7.252;2023-02-08T00:12:56;8.75;;;5.47;;
64457;SDS011;58438;51.200;7.252;2023-02-08T00:15:44;12.25;;;5.47;;
64457;SDS011;58438;51.200;7.252;2023-02-08T00:18:33;12.70;;;5.72;;
64457;SDS011;58438;51.200;7.252;2023-02-08T00:21:20;8.52;;;4.88;;
64457;SDS011;58438;51.200;7.252;2023-02-08T00:24:08;9.88;;;4.97;;
64457;SDS011;58438;51.200;7.252;2023-02-08T00:26:55;9.27;;;5.38;;
64457;SDS011;58438;51.200;7.252;2023-02-08T00:29:43;7.45;;;4.57;;
64457;SDS011;58438;51.200;7.252;2023-02-08T00:32:30;9.75;;;5.53;;
64457;SDS011;58438;51.200;7.252;2023-02-08T00:35:19;9.30;;;4.45;;
64457;SDS011;58438;51.200;7.252;2023-02-08T00:38:06;9.77;;;4.47;;
64457;SDS011;58438;51.200;7.252;2023-02-08T00:40:54;7.15;;;4.93;;
64457;SDS011;58438;51.200;7.252;2023-02-08T00:43:42;5.88;;;4.68;;
64457;SDS011;58438;51.200;7.252;2023-02-08T00:46:29;9.95;;;4.97;;
64457;SDS011;58438;51.200;7.252;2023-02-08T00:49:17;11.98;;;5.55;;
64457;SDS011;58438;51.200;7.252;2023-02-08T00:52:06;7.32;;;4.57;;
64457;SDS011;58438;51.200;7.252;2023-02-08T00:54:53;8.80;;;4.78;;
64457;SDS011;58438;51.200;7.252;2023-02-08T00:57:41;8.25;;;5.07;;
64457;SDS011;58438;51.200;7.252;2023-02-08T01:00:29;7.85;;;4.90;;
64457;SDS011;58438;51.200;7.252;2023-02-08T01:03:16;9.10;;;4.60;;
64457;SDS011;58438;51.200;7.252;2023-02-08T01:06:05;7.07;;;4.80;;
64457;SDS011;58438;51.200;7.252;2023-02-08T01:08:55;7.00;;;4.78;;
64457;SDS011;58438;51.200;7.252;2023-02-08T01:11:42;8.15;;;4.88;;
64457;SDS011;58438;51.200;7.252;2023-02-08T01:14:30;8.88;;;4.60;;
64457;SDS011;58438;51.200;7.252;2023-02-08T01:17:17;6.70;;;4.47;;
64457;SDS011;58438;51.200;7.252;2023-02-08T01:20:05;6.55;;;4.38;;
64457;SDS011;58438;51.200;7.252;2023-02-08T01:22:53;8.65;;;4.90;;
64457;SDS011;58438;51.200;7.252;2023-02-08T01:25:42;8.52;;;4.78;;
64457;SDS011;58438;51.200;7.252;2023-02-08T01:28:30;8.90;;;5.10;;
64457;SDS011;58438;51.200;7.252;2023-02-08T01:31:18;9.40;;;4.90;;
64457;SDS011;58438;51.200;7.252;2023-02-08T01:34:08;8.27;;;4.82;;
64457;SDS011;58438;51.200;7.252;2023-02-08T01:36:56;6.88;;;4.60;;
64457;SDS011;58438;51.200;7.252;2023-02-08T01:39:43;8.05;;;4.88;;
64457;SDS011;58438;51.200;7.252;2023-02-08T01:42:32;6.93;;;4.35;;
64457;SDS011;58438;51.200;7.252;2023-02-08T01:45:23;7.70;;;4.32;;
64457;SDS011;58438;51.200;7.252;2023-02-08T01:48:13;8.07;;;4.63;;
64457;SDS011;58438;51.200;7.252;2023-02-08T01:51:06;7.90;;;4.45;;
64457;SDS011;58438;51.200;7.252;2023-02-08T01:53:57;9.82;;;5.25;;
64457;SDS011;58438;51.200;7.252;2023-02-08T01:56:46;6.90;;;4.40;;
64457;SDS011;58438;51.200;7.252;2023-02-08T01:59:37;10.00;;;5.03;;
64457;SDS011;58438;51.200;7.252;2023-02-08T02:02:28;9.30;;;4.85;;
64457;SDS011;58438;51.200;7.252;2023-02-08T02:05:16;7.07;;;4.60;;
64457;SDS011;58438;51.200;7.252;2023-02-08T02:08:03;8.68;;;4.55;;
64457;SDS011;58438;51.200;7.252;2023-02-08T02:10:51;6.78;;;4.65;;
64457;SDS011;58438;51.200;7.252;2023-02-08T02:13:39;8.40;;;4.78;;
64457;SDS011;58438;51.200;7.252;2023-02-08T02:16:28;10.60;;;4.57;;
64457;SDS011;58438;51.200;7.252;2023-02-08T02:19:18;7.68;;;4.55;;
64457;SDS011;58438;51.200;7.252;2023-02-08T02:22:19;9.02;;;5.22;;
64457;SDS011;58438;51.200;7.252;2023-02-08T02:25:33;7.40;;;5.00;;
64457;SDS011;58438;51.200;7.252;2023-02-08T02:29:05;7.63;;;4.00;;
64457;SDS011;58438;51.200;7.252;2023-02-08T02:32:05;9.05;;;4.30;;
64457;SDS011;58438;51.200;7.252;2023-02-08T02:35:02;7.10;;;3.67;;
64457;SDS011;58438;51.200;7.252;2023-02-08T02:37:54;7.35;;;4.43;;
64457;SDS011;58438;51.200;7.252;2023-02-08T02:40:56;8.45;;;4.05;;
64457;SDS011;58438;51.200;7.252;2023-02-08T02:43:54;8.13;;;4.38;;
64457;SDS011;58438;51.200;7.252;2023-02-08T02:46:45;8.10;;;4.72;;
64457;SDS011;58438;51.200;7.252;2023-02-08T02:49:44;9.98;;;4.68;;
64457;SDS011;58438;51.200;7.252;2023-02-08T02:52:36;9.07;;;4.68;;
64457;SDS011;58438;51.200;7.252;2023-02-08T02:55:28;5.20;;;4.03;;
64457;SDS011;58438;51.200;7.252;2023-02-08T02:58:21;6.15;;;3.88;;
64457;SDS011;58438;51.200;7.252;2023-02-08T03:01:12;6.82;;;3.72;;
64457;SDS011;58438;51.200;7.252;2023-02-08T03:04:10;6.93;;;3.95;;
64457;SDS011;58438;51.200;7.252;2023-02-08T03:07:00;9.10;;;4.20;;
64457;SDS011;58438;51.200;7.252;2023-02-08T03:09:55;6.13;;;3.97;;
64457;SDS011;58438;51.200;7.252;2023-02-08T03:12:52;7.70;;;3.55;;
64457;SDS011;58438;51.200;7.252;2023-02-08T03:15:46;6.13;;;3.95;;
64457;SDS011;58438;51.200;7.252;2023-02-08T03:18:46;8.05;;;4.65;;
64457;SDS011;58438;51.200;7.252;2023-02-08T03:21:45;10.50;;;4.10;;
64457;SDS011;58438;51.200;7.252;2023-02-08T03:24:41;7.78;;;4.30;;
64457;SDS011;58438;51.200;7.252;2023-02-08T03:27:36;7.13;;;4.50;;
64457;SDS011;58438;51.200;7.252;2023-02-08T03:30:31;7.60;;;4.68;;
64457;SDS011;58438;51.200;7.252;2023-02-08T03:33:26;8.93;;;4.20;;
64457;SDS011;58438;51.200;7.252;2023-02-08T03:36:20;9.18;;;4.32;;
64457;SDS011;58438;51.200;7.252;2023-02-08T03:39:14;7.28;;;4.40;;
64457;SDS011;58438;51.200;7.252;2023-02-08T03:42:07;6.72;;;4.07;;
64457;SDS011;58438;51.200;7.252;2023-02-08T03:45:02;5.78;;;3.97;;
64457;SDS011;58438;51.200;7.252;2023-02-08T03:47:55;6.85;;;4.53;;
64457;SDS011;58438;51.200;7.252;2023-02-08T03:50:47;8.13;;;3.88;;
64457;SDS011;58438;51.200;7.252;2023-02-08T03:53:37;7.63;;;3.63;;
64457;SDS011;58438;51.200;7.252;2023-02-08T03:56:30;8.25;;;4.07;;
64457;SDS011;58438;51.200;7.252;2023-02-08T03:59:26;6.70;;;4.40;;
64457;SDS011;58438;51.200;7.252;2023-02-08T04:02:19;9.48;;;4.50;;
64457;SDS011;58438;51.200;7.252;2023-02-08T04:05:08;8.60;;;4.20;;
64457;SDS011;58438;51.200;7.252;2023-02-08T04:07:55;8.20;;;4.30;;
64457;SDS011;58438;51.200;7.252;2023-02-08T04:10:42;8.85;;;4.35;;
64457;SDS011;58438;51.200;7.252;2023-02-08T04:13:30;7.95;;;4.70;;
64457;SDS011;58438;51.200;7.252;2023-02-08T04:16:20;7.13;;;3.78;;
64457;SDS011;58438;51.200;7.252;2023-02-08T04:19:07;8.60;;;4.13;;
64457;SDS011;58438;51.200;7.252;2023-02-08T04:21:55;5.80;;;4.00;;
64457;SDS011;58438;51.200;7.252;2023-02-08T04:24:42;8.10;;;3.75;;
64457;SDS011;58438;51.200;7.252;2023-02-08T04:27:30;5.00;;;3.63;;
64457;SDS011;58438;51.200;7.252;2023-02-08T04:30:17;7.53;;;3.50;;
64457;SDS011;58438;51.200;7.252;2023-02-08T04:33:07;7.28;;;3.63;;
64457;SDS011;58438;51.200;7.252;2023-02-08T04:35:57;8.30;;;3.85;;
64457;SDS011;58438;51.200;7.252;2023-02-08T04:38:45;9.30;;;4.47;;
64457;SDS011;58438;51.200;7.252;2023-02-08T04:41:33;7.28;;;3.95;;
64457;SDS011;58438;51.200;7.252;2023-02-08T04:44:20;4.95;;;4.10;;
64457;SDS011;58438;51.200;7.252;2023-02-08T04:47:08;9.07;;;4.40;;
64457;SDS011;58438;51.200;7.252;2023-02-08T04:49:57;7.28;;;4.03;;
64457;SDS011;58438;51.200;7.252;2023-02-08T04:52:44;7.60;;;4.47;;
64457;SDS011;58438;51.200;7.252;2023-02-08T04:55:32;6.78;;;3.50;;
64457;SDS011;58438;51.200;7.252;2023-02-08T04:58:20;5.18;;;3.97;;
64457;SDS011;58438;51.200;7.252;2023-02-08T05:01:07;7.43;;;4.35;;
64457;SDS011;58438;51.200;7.252;2023-02-08T05:03:56;6.82;;;3.72;;
64457;SDS011;58438;51.200;7.252;2023-02-08T05:06:44;6.90;;;4.35;;
64457;SDS011;58438;51.200;7.252;2023-02-08T05:09:33;8.45;;;4.15;;
64457;SDS011;58438;51.200;7.252;2023-02-08T05:12:21;9.48;;;4.50;;
64457;SDS011;58438;51.200;7.252;2023-02-08T05:15:08;7.10;;;3.92;;
64457;SDS011;58438;51.200;7.252;2023-02-08T05:17:56;7.93;;;4.03;;
64457;SDS011;58438;51.200;7.252;2023-02-08T05:20:44;9.95;;;4.75;;
64457;SDS011;58438;51.200;7.252;2023-02-08T05:23:33;9.02;;;4.07;;
64457;SDS011;58438;51.200;7.252;2023-02-08T05:26:20;7.18;;;4.15;;
64457;SDS011;58438;51.200;7.252;2023-02-08T05:29:08;6.32;;;3.28;;
64457;SDS011;58438;51.200;7.252;2023-02-08T05:31:55;6.35;;;4.05;;
64457;SDS011;58438;51.200;7.252;2023-02-08T05:34:43;8.57;;;4.32;;
64457;SDS011;58438;51.200;7.252;2023-02-08T05:37:30;8.45;;;3.80;;
64457;SDS011;58438;51.200;7.252;2023-02-08T05:40:19;6.20;;;3.55;;
64457;SDS011;58438;51.200;7.252;2023-02-08T05:43:07;5.80;;;3.83;;
64457;SDS011;58438;51.200;7.252;2023-02-08T05:45:54;6.00;;;3.97;;
64457;SDS011;58438;51.200;7.252;2023-02-08T05:48:42;8.80;;;3.95;;
64457;SDS011;58438;51.200;7.252;2023-02-08T05:51:29;8.35;;;4.53;;
64457;SDS011;58438;51.200;7.252;2023-02-08T05:54:17;8.60;;;4.40;;
64457;SDS011;58438;51.200;7.252;2023-02-08T05:57:06;9.70;;;4.43;;
64457;SDS011;58438;51.200;7.252;2023-02-08T05:59:54;4.80;;;3.92;;
64457;SDS011;58438;51.200;7.252;2023-02-08T06:02:41;7.93;;;4.30;;
64457;SDS011;58438;51.200;7.252;2023-02-08T06:05:29;10.20;;;4.47;;
64457;SDS011;58438;51.200;7.252;2023-02-08T06:08:16;5.32;;;3.90;;
64457;SDS011;58438;51.200;7.252;2023-02-08T06:11:04;5.80;;;3.45;;
64457;SDS011;58438;51.200;7.252;2023-02-08T06:13:53;5.78;;;3.67;;
64457;SDS011;58438;51.200;7.252;2023-02-08T06:16:41;8.00;;;4.20;;
64457;SDS011;58438;51.200;7.252;2023-02-08T06:19:28;7.22;;;4.10;;
64457;SDS011;58438;51.200;7.252;2023-02-08T06:22:16;7.50;;;4.15;;
64457;SDS011;58438;51.200;7.252;2023-02-08T06:25:03;7.35;;;3.60;;
64457;SDS011;58438;51.200;7.252;2023-02-08T06:27:51;6.25;;;3.95;;
64457;SDS011;58438;51.200;7.252;2023-02-08T06:30:43;7.10;;;3.63;;
64457;SDS011;58438;51.200;7.252;2023-02-08T06:33:30;5.00;;;4.07;;
64457;SDS011;58438;51.200;7.252;2023-02-08T06:36:19;8.18;;;4.35;;
64457;SDS011;58438;51.200;7.252;2023-02-08T06:39:07;7.35;;;4.35;;
64457;SDS011;58438;51.200;7.252;2023-02-08T06:41:54;9.57;;;4.40;;
64457;SDS011;58438;51.200;7.252;2023-02-08T06:44:42;5.60;;;4.30;;
64457;SDS011;58438;51.200;7.252;2023-02-08T06:47:42;5.88;;;3.83;;
64457;SDS011;58438;51.200;7.252;2023-02-08T06:50:30;6.47;;;3.97;;
64457;SDS011;58438;51.200;7.252;2023-02-08T06:53:18;7.05;;;4.47;;
64457;SDS011;58438;51.200;7.252;2023-02-08T06:56:06;4.82;;;3.38;;
64457;SDS011;58438;51.200;7.252;2023-02-08T06:58:54;7.70;;;4.15;;
64457;SDS011;58438;51.200;7.252;2023-02-08T07:01:42;8.10;;;4.18;;
64457;SDS011;58438;51.200;7.252;2023-02-08T07:04:31;8.55;;;5.10;;
64457;SDS011;58438;51.200;7.252;2023-02-08T07:07:18;8.13;;;3.58;;
64457;SDS011;58438;51.200;7.252;2023-02-08T07:10:06;8.77;;;4.57;;
64457;SDS011;58438;51.200;7.252;2023-02-08T07:12:54;6.80;;;3.53;;
64457;SDS011;58438;51.200;7.252;2023-02-08T07:15:42;5.55;;;4.00;;
64457;SDS011;58438;51.200;7.252;2023-02-08T07:18:30;7.30;;;4.25;;
64457;SDS011;58438;51.200;7.252;2023-02-08T07:21:18;8.75;;;4.32;;
64457;SDS011;58438;51.200;7.252;2023-02-08T07:24:06;3.88;;;3.25;;
64457;SDS011;58438;51.200;7.252;2023-02-08T07:26:53;4.72;;;3.42;;
64457;SDS011;58438;51.200;7.252;2023-02-08T07:29:41;8.65;;;4.80;;
64457;SDS011;58438;51.200;7.252;2023-02-08T07:32:28;6.18;;;3.85;;
64457;SDS011;58438;51.200;7.252;2023-02-08T07:35:17;7.55;;;3.83;;
64457;SDS011;58438;51.200;7.252;2023-02-08T07:38:06;10.50;;;4.18;;
64457;SDS011;58438;51.200;7.252;2023-02-08T07:40:58;6.32;;;4.05;;
64457;SDS011;58438;51.200;7.252;2023-02-08T07:43:46;6.25;;;4.18;;
64457;SDS011;58438;51.200;7.252;2023-02-08T07:46:34;7.45;;;3.85;;
64457;SDS011;58438;51.200;7.252;2023-02-08T07:49:22;7.10;;;3.60;;
64457;SDS011;58438;51.200;7.252;2023-02-08T07:52:09;7.10;;;4.28;;
64457;SDS011;58438;51.200;7.252;2023-02-08T07:54:58;9.65;;;5.10;;
64457;SDS011;58438;51.200;7.252;2023-02-08T07:57:46;7.05;;;3.90;;
64457;SDS011;58438;51.200;7.252;2023-02-08T08:00:34;7.13;;;4.30;;
64457;SDS011;58438;51.200;7.252;2023-02-08T08:03:22;7.57;;;3.97;;
64457;SDS011;58438;51.200;7.252;2023-02-08T08:06:09;6.18;;;3.75;;
64457;SDS011;58438;51.200;7.252;2023-02-08T08:08:57;6.72;;;4.22;;
64457;SDS011;58438;51.200;7.252;2023-02-08T08:11:46;6.55;;;3.97;;
64457;SDS011;58438;51.200;7.252;2023-02-08T08:14:34;9.35;;;3.80;;
64457;SDS011;58438;51.200;7.252;2023-02-08T08:17:21;6.80;;;4.00;;
64457;SDS011;58438;51.200;7.252;2023-02-08T08:20:10;10.02;;;5.07;;
64457;SDS011;58438;51.200;7.252;2023-02-08T08:22:59;7.75;;;3.78;;
64457;SDS011;58438;51.200;7.252;2023-02-08T08:25:48;8.82;;;4.03;;
64457;SDS011;58438;51.200;7.252;2023-02-08T08:28:37;6.25;;;3.63;;
64457;SDS011;58438;51.200;7.252;2023-02-08T08:31:24;5.63;;;3.42;;
64457;SDS011;58438;51.200;7.252;2023-02-08T08:34:12;7.88;;;4.60;;
64457;SDS011;58438;51.200;7.252;2023-02-08T08:37:00;7.65;;;3.78;;
64457;SDS011;58438;51.200;7.252;2023-02-08T08:39:48;5.55;;;3.90;;
64457;SDS011;58438;51.200;7.252;2023-02-08T08:42:36;6.18;;;3.42;;
64457;SDS011;58438;51.200;7.252;2023-02-08T08:45:26;9.68;;;3.75;;
64457;SDS011;58438;51.200;7.252;2023-02-08T08:48:14;7.10;;;4.45;;
64457;SDS011;58438;51.200;7.252;2023-02-08T08:51:02;7.57;;;3.83;;
64457;SDS011;58438;51.200;7.252;2023-02-08T08:53:51;6.93;;;3.67;;
64457;SDS011;58438;51.200;7.252;2023-02-08T08:56:39;8.93;;;3.35;;
64457;SDS011;58438;51.200;7.252;2023-02-08T08:59:27;6.57;;;4.32;;
64457;SDS011;58438;51.200;7.252;2023-02-08T09:02:19;9.88;;;4.00;;
64457;SDS011;58438;51.200;7.252;2023-02-08T09:05:07;11.20;;;4.20;;
64457;SDS011;58438;51.200;7.252;2023-02-08T09:07:55;5.00;;;3.40;;
64457;SDS011;58438;51.200;7.252;2023-02-08T09:10:42;7.05;;;4.10;;
64457;SDS011;58438;51.200;7.252;2023-02-08T09:13:30;5.90;;;3.80;;
64457;SDS011;58438;51.200;7.252;2023-02-08T09:16:18;7.78;;;3.90;;
64457;SDS011;58438;51.200;7.252;2023-02-08T09:19:07;5.93;;;3.33;;
64457;SDS011;58438;51.200;7.252;2023-02-08T09:21:56;7.45;;;3.47;;
64457;SDS011;58438;51.200;7.252;2023-02-08T09:24:45;9.90;;;3.53;;
64457;SDS011;58438;51.200;7.252;2023-02-08T09:27:33;5.13;;;2.88;;
64457;SDS011;58438;51.200;7.252;2023-02-08T09:30:21;3.85;;;2.97;;
64457;SDS011;58438;51.200;7.252;2023-02-08T09:33:08;6.40;;;3.28;;
64457;SDS011;58438;51.200;7.252;2023-02-08T09:35:57;6.22;;;3.45;;
64457;SDS011;58438;51.200;7.252;2023-02-08T09:38:44;5.97;;;3.10;;
64457;SDS011;58438;51.200;7.252;2023-02-08T09:41:35;4.85;;;2.95;;
64457;SDS011;58438;51.200;7.252;2023-02-08T09:44:28;4.55;;;3.03;;
64457;SDS011;58438;51.200;7.252;2023-02-08T09:47:22;6.55;;;3.55;;
64457;SDS011;58438;51.200;7.252;2023-02-08T09:50:16;4.85;;;2.80;;
64457;SDS011;58438;51.200;7.252;2023-02-08T09:53:09;5.57;;;3.08;;
64457;SDS011;58438;51.200;7.252;2023-02-08T09:56:00;5.05;;;3.00;;
64457;SDS011;58438;51.200;7.252;2023-02-08T09:58:50;6.15;;;2.80;;
64457;SDS011;58438;51.200;7.252;2023-02-08T10:01:39;4.82;;;2.92;;
64457;SDS011;58438;51.200;7.252;2023-02-08T10:04:29;6.38;;;3.17;;
64457;SDS011;58438;51.200;7.252;2023-02-08T10:07:23;5.35;;;2.95;;
64457;SDS011;58438;51.200;7.252;2023-02-08T10:10:13;5.18;;;2.78;;
64457;SDS011;58438;51.200;7.252;2023-02-08T10:13:02;4.32;;;2.60;;
64457;SDS011;58438;51.200;7.252;2023-02-08T10:16:05;5.10;;;3.13;;
64457;SDS011;58438;51.200;7.252;2023-02-08T10:19:00;4.53;;;2.55;;
64457;SDS011;58438;51.200;7.252;2023-02-08T10:21:57;5.25;;;3.08;;
64457;SDS011;58438;51.200;7.252;2023-02-08T10:25:08;4.50;;;2.80;;
64457;SDS011;58438;51.200;7.252;2023-02-08T10:28:15;6.45;;;3.15;;
64457;SDS011;58438;51.200;7.252;2023-02-08T10:31:18;4.22;;;2.20;;
64457;SDS011;58438;51.200;7.252;2023-02-08T10:34:19;4.82;;;2.38;;
64457;SDS011;58438;51.200;7.252;2023-02-08T10:37:15;4.85;;;3.13;;
64457;SDS011;58438;51.200;7.252;2023-02-08T10:40:12;4.55;;;2.42;;
64457;SDS011;58438;51.200;7.252;2023-02-08T10:43:18;4.05;;;2.17;;
64457;SDS011;58438;51.200;7.252;2023-02-08T10:46:15;5.68;;;2.50;;
64457;SDS011;58438;51.200;7.252;2023-02-08T10:49:12;4.18;;;2.67;;
64457;SDS011;58438;51.200;7.252;2023-02-08T10:52:03;4.43;;;2.28;;
64457;SDS011;58438;51.200;7.252;2023-02-08T10:54:50;3.88;;;2.25;;
64457;SDS011;58438;51.200;7.252;2023-02-08T10:57:40;5.07;;;2.28;;
64457;SDS011;58438;51.200;7.252;2023-02-08T11:00:29;5.60;;;2.30;;
64457;SDS011;58438;51.200;7.252;2023-02-08T11:03:20;4.88;;;2.40;;
64457;SDS011;58438;51.200;7.252;2023-02-08T11:06:15;3.95;;;2.45;;
64457;SDS011;58438;51.200;7.252;2023-02-08T11:09:22;5.80;;;2.35;;
64457;SDS011;58438;51.200;7.252;2023-02-08T11:12:15;4.93;;;2.33;;
64457;SDS011;58438;51.200;7.252;2023-02-08T11:15:15;2.90;;;2.10;;
64457;SDS011;58438;51.200;7.252;2023-02-08T11:18:14;3.75;;;2.22;;
64457;SDS011;58438;51.200;7.252;2023-02-08T11:21:07;4.00;;;2.42;;
64457;SDS011;58438;51.200;7.252;2023-02-08T11:23:57;4.32;;;2.30;;
64457;SDS011;58438;51.200;7.252;2023-02-08T11:26:46;4.97;;;2.28;;
64457;SDS011;58438;51.200;7.252;2023-02-08T11:29:35;4.55;;;2.00;;
64457;SDS011;58438;51.200;7.252;2023-02-08T11:32:24;4.90;;;2.70;;
64457;SDS011;58438;51.200;7.252;2023-02-08T11:35:12;3.10;;;2.03;;
64457;SDS011;58438;51.200;7.252;2023-02-08T11:38:14;6.13;;;2.88;;
64457;SDS011;58438;51.200;7.252;2023-02-08T11:41:12;4.75;;;2.35;;
64457;SDS011;58438;51.200;7.252;2023-02-08T11:44:02;3.80;;;1.90;;
64457;SDS011;58438;51.200;7.252;2023-02-08T11:46:52;6.03;;;2.53;;
64457;SDS011;58438;51.200;7.252;2023-02-08T11:49:41;3.30;;;2.20;;
64457;SDS011;58438;51.200;7.252;2023-02-08T11:52:30;3.55;;;2.30;;
64457;SDS011;58438;51.200;7.252;2023-02-08T11:55:21;6.45;;;2.83;;
64457;SDS011;58438;51.200;7.252;2023-02-08T11:58:16;4.72;;;2.72;;
64457;SDS011;58438;51.200;7.252;2023-02-08T12:01:08;6.30;;;2.75;;
64457;SDS011;58438;51.200;7.252;2023-02-08T12:04:02;8.52;;;2.88;;
64457;SDS011;58438;51.200;7.252;2023-02-08T12:07:05;5.32;;;2.50;;
64457;SDS011;58438;51.200;7.252;2023-02-08T12:10:02;5.32;;;2.55;;
64457;SDS011;58438;51.200;7.252;2023-02-08T12:13:05;5.13;;;3.03;;
64457;SDS011;58438;51.200;7.252;2023-02-08T12:15:59;4.72;;;2.45;;
64457;SDS011;58438;51.200;7.252;2023-02-08T12:18:52;4.43;;;2.83;;
64457;SDS011;58438;51.200;7.252;2023-02-08T12:21:46;4.20;;;2.33;;
64457;SDS011;58438;51.200;7.252;2023-02-08T12:24:37;4.85;;;2.35;;
64457;SDS011;58438;51.200;7.252;2023-02-08T12:27:33;5.25;;;2.40;;
64457;SDS011;58438;51.200;7.252;2023-02-08T12:30:26;4.05;;;2.88;;
64457;SDS011;58438;51.200;7.252;2023-02-08T12:33:25;4.35;;;2.35;;
64457;SDS011;58438;51.200;7.252;2023-02-08T12:36:19;2.88;;;1.90;;
64457;SDS011;58438;51.200;7.252;2023-02-08T12:39:17;5.85;;;2.70;;
64457;SDS011;58438;51.200;7.252;2023-02-08T12:42:36;5.25;;;2.22;;
64457;SDS011;58438;51.200;7.252;2023-02-08T12:45:42;3.90;;;2.70;;
64457;SDS011;58438;51.200;7.252;2023-02-08T12:48:44;3.88;;;2.53;;
64457;SDS011;58438;51.200;7.252;2023-02-08T12:51:35;4.03;;;2.25;;
64457;SDS011;58438;51.200;7.252;2023-02-08T12:54:25;6.05;;;2.75;;
64457;SDS011;58438;51.200;7.252;2023-02-08T12:57:15;3.15;;;1.90;;
64457;SDS011;58438;51.200;7.252;2023-02-08T13:00:06;4.18;;;2.47;;
64457;SDS011;58438;51.200;7.252;2023-02-08T13:03:03;5.78;;;2.67;;
64457;SDS011;58438;51.200;7.252;2023-02-08T13:05:52;6.57;;;3.15;;
64457;SDS011;58438;51.200;7.252;2023-02-08T13:08:48;2.85;;;2.20;;
64457;SDS011;58438;51.200;7.252;2023-02-08T13:11:38;6.28;;;2.47;;
64457;SDS011;58438;51.200;7.252;2023-02-08T13:14:27;5.50;;;2.67;;
64457;SDS011;58438;51.200;7.252;2023-02-08T13:17:20;6.43;;;2.92;;
64457;SDS011;58438;51.200;7.252;2023-02-08T13:20:24;6.00;;;2.65;;
64457;SDS011;58438;51.200;7.252;2023-02-08T13:23:18;7.55;;;2.80;;
64457;SDS011;58438;51.200;7.252;2023-02-08T13:26:07;5.68;;;2.90;;
64457;SDS011;58438;51.200;7.252;2023-02-08T13:28:55;5.97;;;2.60;;
64457;SDS011;58438;51.200;7.252;2023-02-08T13:31:47;3.28;;;2.50;;
64457;SDS011;58438;51.200;7.252;2023-02-08T13:34:39;6.25;;;2.88;;
64457;SDS011;58438;51.200;7.252;2023-02-08T13:37:27;5.03;;;2.90;;
64457;SDS011;58438;51.200;7.252;2023-02-08T13:40:17;8.07;;;3.00;;
64457;SDS011;58438;51.200;7.252;2023-02-08T13:43:06;5.13;;;2.83;;
64457;SDS011;58438;51.200;7.252;2023-02-08T13:45:55;5.35;;;2.95;;
64457;SDS011;58438;51.200;7.252;2023-02-08T13:48:46;6.72;;;2.60;;
64457;SDS011;58438;51.200;7.252;2023-02-08T13:51:49;4.68;;;2.95;;
64457;SDS011;58438;51.200;7.252;2023-02-08T13:54:37;4.93;;;3.10;;
64457;SDS011;58438;51.200;7.252;2023-02-08T14:00:30;6.57;;;3.30;;
64457;SDS011;58438;51.200;7.252;2023-02-08T14:03:19;4.88;;;2.50;;
64457;SDS011;58438;51.200;7.252;2023-02-08T14:06:07;5.10;;;2.70;;
64457;SDS011;58438;51.200;7.252;2023-02-08T14:09:05;4.28;;;2.50;;
64457;SDS011;58438;51.200;7.252;2023-02-08T14:11:58;5.05;;;2.75;;
64457;SDS011;58438;51.200;7.252;2023-02-08T14:17:49;4.55;;;2.80;;
64457;SDS011;58438;51.200;7.252;2023-02-08T14:20:41;5.40;;;2.90;;
64457;SDS011;58438;51.200;7.252;2023-02-08T14:23:40;3.75;;;2.38;;
64457;SDS011;58438;51.200;7.252;2023-02-08T14:26:29;6.22;;;2.97;;
64457;SDS011;58438;51.200;7.252;2023-02-08T14:29:18;6.05;;;2.85;;
64457;SDS011;58438;51.200;7.252;2023-02-08T14:32:06;5.22;;;2.83;;
64457;SDS011;58438;51.200;7.252;2023-02-08T14:35:01;7.35;;;2.75;;
64457;SDS011;58438;51.200;7.252;2023-02-08T14:37:49;7.30;;;2.80;;
64457;SDS011;58438;51.200;7.252;2023-02-08T14:40:57;4.93;;;2.63;;
64457;SDS011;58438;51.200;7.252;2023-02-08T14:43:45;23.85;;;4.13;;
64457;SDS011;58438;51.200;7.252;2023-02-08T14:46:42;16.40;;;3.25;;
64457;SDS011;58438;51.200;7.252;2023-02-08T14:49:33;4.15;;;2.42;;
64457;SDS011;58438;51.200;7.252;2023-02-08T14:52:22;6.93;;;2.55;;
64457;SDS011;58438;51.200;7.252;2023-02-08T14:55:12;4.35;;;2.45;;
64457;SDS011;58438;51.200;7.252;2023-02-08T14:58:02;5.75;;;2.53;;
64457;SDS011;58438;51.200;7.252;2023-02-08T15:00:55;4.28;;;2.63;;
64457;SDS011;58438;51.200;7.252;2023-02-08T15:03:43;8.50;;;2.55;;
64457;SDS011;58438;51.200;7.252;2023-02-08T15:06:41;3.63;;;2.25;;
64457;SDS011;58438;51.200;7.252;2023-02-08T15:09:35;4.55;;;2.50;;
64457;SDS011;58438;51.200;7.252;2023-02-08T15:12:23;13.57;;;3.90;;
64457;SDS011;58438;51.200;7.252;2023-02-08T15:15:19;5.63;;;3.17;;
64457;SDS011;58438;51.200;7.252;2023-02-08T15:18:14;6.30;;;2.67;;
64457;SDS011;58438;51.200;7.252;2023-02-08T15:21:04;3.72;;;2.35;;
64457;SDS011;58438;51.200;7.252;2023-02-08T15:23:58;3.53;;;1.63;;
64457;SDS011;58438;51.200;7.252;2023-02-08T15:29:38;2.47;;;1.50;;
64457;SDS011;58438;51.200;7.252;2023-02-08T15:32:29;5.13;;;2.10;;
64457;SDS011;58438;51.200;7.252;2023-02-08T15:35:18;4.57;;;2.45;;
64457;SDS011;58438;51.200;7.252;2023-02-08T15:38:10;5.22;;;2.45;;
64457;SDS011;58438;51.200;7.252;2023-02-08T15:41:01;5.88;;;2.22;;
64457;SDS011;58438;51.200;7.252;2023-02-08T15:43:48;8.38;;;2.70;;
64457;SDS011;58438;51.200;7.252;2023-02-08T15:46:35;4.28;;;2.70;;
64457;SDS011;58438;51.200;7.252;2023-02-08T15:49:23;6.50;;;2.75;;
64457;SDS011;58438;51.200;7.252;2023-02-08T15:52:15;4.18;;;2.03;;
64457;SDS011;58438;51.200;7.252;2023-02-08T15:55:04;5.25;;;2.60;;
64457;SDS011;58438;51.200;7.252;2023-02-08T15:57:53;3.42;;;1.92;;
64457;SDS011;58438;51.200;7.252;2023-02-08T16:00:41;4.57;;;2.58;;
64457;SDS011;58438;51.200;7.252;2023-02-08T16:03:30;4.90;;;2.47;;
64457;SDS011;58438;51.200;7.252;2023-02-08T16:06:20;5.40;;;2.85;;
64457;SDS011;58438;51.200;7.252;2023-02-08T16:09:14;6.75;;;2.88;;
64457;SDS011;58438;51.200;7.252;2023-02-08T16:12:03;4.68;;;2.67;;
64457;SDS011;58438;51.200;7.252;2023-02-08T16:14:50;2.58;;;2.10;;
64457;SDS011;58438;51.200;7.252;2023-02-08T16:17:41;3.42;;;1.95;;
64457;SDS011;58438;51.200;7.252;2023-02-08T16:20:29;4.22;;;2.00;;
64457;SDS011;58438;51.200;7.252;2023-02-08T16:23:27;5.03;;;2.25;;
64457;SDS011;58438;51.200;7.252;2023-02-08T16:26:17;9.02;;;2.50;;
64457;SDS011;58438;51.200;7.252;2023-02-08T16:29:05;5.90;;;2.10;;
64457;SDS011;58438;51.200;7.252;2023-02-08T16:31:58;4.10;;;2.15;;
64457;SDS011;58438;51.200;7.252;2023-02-08T16:34:48;6.63;;;2.75;;
64457;SDS011;58438;51.200;7.252;2023-02-08T16:37:35;10.13;;;2.70;;
64457;SDS011;58438;51.200;7.252;2023-02-08T16:40:40;16.85;;;4.18;;
64457;SDS011;58438;51.200;7.252;2023-02-08T16:43:30;7.50;;;2.53;;
64457;SDS011;58438;51.200;7.252;2023-02-08T16:46:19;4.03;;;3.03;;
64457;SDS011;58438;51.200;7.252;2023-02-08T16:49:07;4.68;;;2.78;;
64457;SDS011;58438;51.200;7.252;2023-02-08T16:51:55;7.00;;;3.05;;
64457;SDS011;58438;51.200;7.252;2023-02-08T16:54:42;8.50;;;3.67;;
64457;SDS011;58438;51.200;7.252;2023-02-08T16:57:39;5.45;;;3.60;;
64457;SDS011;58438;51.200;7.252;2023-02-08T17:00:29;10.40;;;3.97;;
64457;SDS011;58438;51.200;7.252;2023-02-08T17:03:16;12.60;;;4.20;;
64457;SDS011;58438;51.200;7.252;2023-02-08T17:06:04;14.02;;;5.75;;
64457;SDS011;58438;51.200;7.252;2023-02-08T17:08:51;11.75;;;5.55;;
64457;SDS011;58438;51.200;7.252;2023-02-08T17:11:38;6.45;;;4.00;;
64457;SDS011;58438;51.200;7.252;2023-02-08T17:14:26;7.03;;;4.03;;
64457;SDS011;58438;51.200;7.252;2023-02-08T17:17:14;8.18;;;4.88;;
64457;SDS011;58438;51.200;7.252;2023-02-08T17:20:01;6.65;;;3.65;;